Time;durP1;ratioP1;P1;durP2;ratioP2;P2;SDS_P1;SDS_P2;PMS_P1;PMS_P2;Temp;Humidity;BMP_temperature;BMP_pressure;BME280_temperature;BME280_humidity;BME280_pressure;Samples;Min_cycle;Max_cycle;Signal;HPM_P1;HPM_P2
2021/07/09 00:02:56;;;;;;;2.85;2.55;;;;;;;21.27;67.22;102328.63;6368004;28;20222;-76
2021/07/09 00:06:00;;;;;;;6.43;2.58;;;;;;;21.19;66.82;102330.75;6366745;28;20354;-76
2021/07/09 00:09:07;;;;;;;5.70;2.70;;;;;;;21.14;67.00;102327.03;6367901;28;20186;-76
2021/07/09 00:12:12;;;;;;;9.40;2.70;;;;;;;21.15;66.86;102324.03;6367994;28;20193;-75
2021/07/09 00:15:16;;;;;;;8.65;2.60;;;;;;;21.22;67.56;102334.94;6367590;28;20189;-76
2021/07/09 00:18:20;;;;;;;2.92;2.75;;;;;;;21.24;68.19;102331.94;6349500;28;20239;-76
2021/07/09 00:21:25;;;;;;;6.15;2.67;;;;;;;21.29;69.13;102323.69;6367822;28;20216;-76
2021/07/09 00:24:31;;;;;;;6.32;2.78;;;;;;;21.28;69.45;102322.00;6367797;28;20187;-76
2021/07/09 00:27:35;;;;;;;4.55;2.88;;;;;;;21.28;69.03;102327.56;6366350;28;20182;-76
2021/07/09 00:30:39;;;;;;;6.75;3.00;;;;;;;21.28;68.79;102322.00;6366972;28;20587;-76
2021/07/09 00:33:43;;;;;;;5.40;2.72;;;;;;;21.28;68.61;102322.00;6366174;28;20479;-76
2021/07/09 00:36:47;;;;;;;5.53;3.03;;;;;;;21.19;71.33;102319.63;6366209;28;20514;-76
2021/07/09 00:39:53;;;;;;;4.30;2.63;;;;;;;21.21;69.43;102317.44;6367259;28;20245;-76
2021/07/09 00:42:57;;;;;;;3.25;3.03;;;;;;;21.20;70.19;102331.59;6366031;28;20205;-76
2021/07/09 00:46:02;;;;;;;6.22;2.78;;;;;;;21.18;69.83;102331.81;6365898;28;20492;-76
2021/07/09 00:49:08;;;;;;;3.97;3.13;;;;;;;21.15;70.73;102318.47;6367263;28;20243;-75
2021/07/09 00:52:12;;;;;;;3.75;2.47;;;;;;;21.05;70.02;102334.91;6365809;28;20240;-75
2021/07/09 00:55:19;;;;;;;4.97;3.00;;;;;;;20.98;69.29;102345.31;6367155;28;20250;-76
2021/07/09 00:58:23;;;;;;;5.93;2.80;;;;;;;21.08;68.40;102356.63;6365669;28;20527;-75
2021/07/09 01:01:27;;;;;;;3.05;2.80;;;;;;;21.15;70.11;102364.81;6367114;28;20212;-75
2021/07/09 01:04:32;;;;;;;6.63;2.65;;;;;;;21.20;70.64;102359.34;6366380;28;20253;-75
2021/07/09 01:07:37;;;;;;;5.07;3.17;;;;;;;21.18;70.17;102351.25;6366454;28;20251;-75
2021/07/09 01:10:43;;;;;;;3.70;2.75;;;;;;;21.13;69.30;102348.38;6364458;28;20218;-75
2021/07/09 01:13:47;;;;;;;4.93;2.90;;;;;;;21.13;68.43;102359.50;6366596;28;20182;-75
2021/07/09 01:16:52;;;;;;;10.30;2.92;;;;;;;21.08;67.86;102350.25;6366623;28;20288;-75
2021/07/09 01:19:56;;;;;;;4.28;2.60;;;;;;;21.12;67.68;102355.06;6365400;28;20189;-75
2021/07/09 01:23:02;;;;;;;3.67;2.85;;;;;;;21.06;67.44;102350.50;6366316;28;20237;-75
2021/07/09 01:26:09;;;;;;;2.67;2.40;;;;;;;21.04;67.94;102349.88;6364848;28;20182;-75
2021/07/09 01:29:13;;;;;;;3.72;2.90;;;;;;;21.03;67.75;102348.19;6365924;28;20198;-75
2021/07/09 01:32:17;;;;;;;5.50;2.95;;;;;;;21.03;67.43;102342.63;6364667;28;20540;-76
2021/07/09 01:35:23;;;;;;;4.25;2.92;;;;;;;20.99;67.95;102347.00;6366116;28;20182;-75
2021/07/09 01:38:28;;;;;;;3.28;3.00;;;;;;;20.98;67.74;102334.22;6366129;28;20245;-75
2021/07/09 01:41:34;;;;;;;6.28;3.58;;;;;;;21.01;68.11;102338.44;6365628;28;20212;-75
2021/07/09 01:44:39;;;;;;;3.70;3.40;;;;;;;20.97;67.98;102326.16;6364855;28;20182;-76
2021/07/09 01:47:43;;;;;;;4.57;4.38;;;;;;;20.95;68.56;102323.66;6364426;28;20454;-76
2021/07/09 01:50:47;;;;;;;4.50;4.28;;;;;;;20.88;68.92;102320.16;6364237;28;20380;-75
2021/07/09 01:53:51;;;;;;;5.03;4.72;;;;;;;20.85;68.89;102317.88;6365736;28;20213;-75
2021/07/09 01:56:57;;;;;;;5.85;5.07;;;;;;;20.87;69.19;102325.97;6364668;28;20219;-75
2021/07/09 02:00:06;;;;;;;6.07;4.40;;;;;;;20.84;70.01;102332.88;6365121;28;20191;-75
2021/07/09 02:03:13;;;;;;;3.45;3.33;;;;;;;20.89;70.42;102329.34;6365503;28;20213;-75
2021/07/09 02:06:17;;;;;;;3.30;3.20;;;;;;;20.83;70.76;102338.63;6365460;28;20182;-75
2021/07/09 02:09:22;;;;;;;3.25;3.03;;;;;;;20.88;70.61;102325.72;6364921;28;20182;-77
2021/07/09 02:12:29;;;;;;;4.40;3.17;;;;;;;20.89;70.79;102330.19;6365243;28;20186;-75
2021/07/09 02:15:38;;;;;;;3.53;3.15;;;;;;;20.96;70.31;102330.84;6363737;28;20182;-76
2021/07/09 02:18:42;;;;;;;3.70;3.20;;;;;;;20.90;69.96;102331.03;6363731;28;20227;-76
2021/07/09 02:21:50;;;;;;;9.68;4.05;;;;;;;20.88;69.05;102339.59;6363351;28;20239;-75
2021/07/09 02:24:55;;;;;;;8.35;3.40;;;;;;;20.85;69.28;102344.81;6364806;28;20189;-76
2021/07/09 02:28:00;;;;;;;6.63;3.33;;;;;;;20.88;68.76;102345.13;6364480;28;20189;-76
2021/07/09 02:31:04;;;;;;;8.50;3.53;;;;;;;20.76;69.62;102346.28;6364590;28;20262;-76
2021/07/09 02:34:09;;;;;;;8.68;3.60;;;;;;;20.78;69.88;102349.66;6363528;28;20244;-76
2021/07/09 02:37:13;;;;;;;6.90;3.70;;;;;;;20.79;69.73;102352.19;6363760;28;20269;-76
2021/07/09 02:40:19;;;;;;;7.72;3.08;;;;;;;20.86;69.54;102352.03;6363949;28;20253;-76
2021/07/09 02:43:25;;;;;;;10.80;3.67;;;;;;;20.89;68.92;102351.53;6364478;28;20210;-76
2021/07/09 02:46:29;;;;;;;10.32;3.47;;;;;;;20.93;69.60;102356.31;6363400;28;20517;-76
2021/07/09 02:49:33;;;;;;;4.20;3.40;;;;;;;20.91;70.33;102350.19;6363998;28;20182;-76
2021/07/09 02:52:37;;;;;;;7.72;2.80;;;;;;;20.92;68.79;102346.34;6363250;28;20578;-76
2021/07/09 02:56:00;;;;;;;7.25;3.22;;;;;;;20.90;68.82;102345.72;6362969;28;20171;-76
2021/07/09 02:59:05;;;;;;;7.43;3.20;;;;;;;20.85;68.37;102334.53;6364155;28;20182;-76
2021/07/09 03:02:12;;;;;;;9.13;3.08;;;;;;;20.86;69.44;102341.78;6363742;28;20210;-76
2021/07/09 03:05:17;;;;;;;4.03;3.08;;;;;;;20.96;70.60;102347.50;6363914;28;20189;-76
2021/07/09 03:08:21;;;;;;;2.80;2.60;;;;;;;20.94;70.21;102337.75;6363937;28;20186;-75
2021/07/09 03:11:25;;;;;;;3.17;2.80;;;;;;;20.90;71.21;102340.16;6363354;28;20189;-76
2021/07/09 03:14:31;;;;;;;9.07;3.10;;;;;;;20.95;71.56;102348.63;6363659;28;20219;-75
2021/07/09 03:17:35;;;;;;;3.85;3.10;;;;;;;20.98;71.24;102350.88;6363316;28;20182;-75
2021/07/09 03:20:40;;;;;;;5.47;2.90;;;;;;;21.01;72.04;102350.38;6363585;28;20251;-75
2021/07/09 03:23:46;;;;;;;4.82;3.20;;;;;;;20.93;72.93;102358.28;6344046;28;20222;-75
2021/07/09 03:26:50;;;;;;;3.47;3.10;;;;;;;20.71;74.09;102365.59;6363357;28;20217;-75
2021/07/09 03:29:56;;;;;;;5.55;3.20;;;;;;;20.74;73.94;102359.56;6356429;28;20297;-75
2021/07/09 03:33:00;;;;;;;5.00;3.05;;;;;;;20.80;74.17;102364.94;6336001;28;20545;-75
2021/07/09 03:36:05;;;;;;;9.02;2.92;;;;;;;20.88;72.90;102359.00;6337872;28;20186;-74
2021/07/09 03:39:11;;;;;;;6.10;3.15;;;;;;;20.92;73.11;102357.44;6336489;28;20214;-75
2021/07/09 03:42:15;;;;;;;3.05;2.80;;;;;;;20.96;72.31;102358.59;6336447;28;20544;-75
2021/07/09 03:45:21;;;;;;;5.32;3.05;;;;;;;21.08;71.37;102345.53;6337937;28;20182;-74
2021/07/09 03:48:25;;;;;;;5.43;3.10;;;;;;;21.02;71.44;102343.75;6337660;28;20189;-75
2021/07/09 03:51:29;;;;;;;10.75;3.15;;;;;;;21.11;70.92;102353.34;6336570;28;20537;-74
2021/07/09 03:54:33;;;;;;;3.25;2.90;;;;;;;21.15;71.57;102346.22;6318078;28;20202;-75
2021/07/09 03:57:37;;;;;;;3.30;3.00;;;;;;;21.08;71.85;102345.53;6336208;28;20542;-75
2021/07/09 04:00:43;;;;;;;3.72;3.00;;;;;;;21.01;71.81;102353.16;6337490;28;20190;-75
2021/07/09 04:03:47;;;;;;;7.88;3.38;;;;;;;21.05;72.58;102357.13;6337148;28;20211;-75
2021/07/09 04:06:51;;;;;;;3.40;3.22;;;;;;;20.93;72.17;102342.44;6337593;28;20240;-75
2021/07/09 04:09:56;;;;;;;4.53;3.20;;;;;;;21.06;72.38;102347.72;6335886;28;20213;-75
2021/07/09 04:13:00;;;;;;;3.38;3.08;;;;;;;21.07;72.80;102332.75;6336010;28;20413;-75
2021/07/09 04:16:06;;;;;;;4.60;3.10;;;;;;;21.16;71.93;102335.94;6337384;28;20242;-75
2021/07/09 04:19:11;;;;;;;3.05;2.95;;;;;;;21.14;71.46;102344.53;6337170;28;20187;-75
2021/07/09 04:22:16;;;;;;;5.38;3.30;;;;;;;21.21;71.70;102327.75;6335942;28;20232;-75
2021/07/09 04:25:20;;;;;;;3.80;3.40;;;;;;;21.20;72.10;102331.59;6337216;28;20266;-75
2021/07/09 04:28:37;;;;;;;4.07;3.40;;;;;;;21.21;72.06;102327.75;6336897;28;20226;-75
2021/07/09 04:31:42;;;;;;;6.43;3.13;;;;;;;21.34;71.60;102315.44;6357910;28;20234;-76
2021/07/09 04:34:47;;;;;;;3.10;2.92;;;;;;;21.30;72.00;102328.13;6361209;28;20470;-75
2021/07/09 04:37:51;;;;;;;5.32;3.50;;;;;;;21.35;71.95;102334.63;6362200;28;20182;-75
2021/07/09 04:40:55;;;;;;;6.72;3.60;;;;;;;21.30;72.22;102317.03;6361007;28;20358;-75
2021/07/09 04:43:59;;;;;;;3.50;3.20;;;;;;;21.28;72.09;102310.91;6362053;28;20213;-75
2021/07/09 04:47:05;;;;;;;2.83;2.78;;;;;;;21.37;71.47;102314.91;6366909;28;20214;-75
2021/07/09 04:50:11;;;;;;;4.20;3.35;;;;;;;21.44;71.67;102310.06;6366671;28;20183;-75
2021/07/09 04:53:19;;;;;;;3.67;3.38;;;;;;;21.41;70.02;102307.78;6365600;28;20493;-75
2021/07/09 04:56:23;;;;;;;9.20;3.10;;;;;;;21.45;69.89;102322.81;6348229;28;20204;-75
2021/07/09 04:59:27;;;;;;;4.72;2.95;;;;;;;21.42;69.55;102328.88;6366574;28;20252;-75
2021/07/09 05:02:33;;;;;;;3.95;2.65;;;;;;;21.50;69.01;102331.25;6366356;28;20245;-75
2021/07/09 05:05:37;;;;;;;7.05;2.67;;;;;;;21.56;68.85;102335.78;6366374;28;20190;-75
2021/07/09 05:08:41;;;;;;;3.28;3.08;;;;;;;21.53;69.80;102325.19;6366278;28;20216;-75
2021/07/09 05:11:45;;;;;;;5.10;2.83;;;;;;;21.50;69.15;102337.63;6365265;28;20182;-75
2021/07/09 05:14:50;;;;;;;4.82;3.15;;;;;;;21.60;69.24;102323.06;6366500;28;20190;-76
2021/07/09 05:17:55;;;;;;;9.32;2.92;;;;;;;21.64;69.47;102310.38;6365458;28;20182;-75
2021/07/09 05:21:00;;;;;;;4.88;3.00;;;;;;;21.56;69.30;102308.00;6366585;28;20261;-76
2021/07/09 05:24:07;;;;;;;3.00;2.80;;;;;;;21.63;69.57;102303.13;6365746;28;20217;-76
2021/07/09 05:27:11;;;;;;;3.20;2.83;;;;;;;21.59;69.54;102296.41;6366174;28;20183;-75
2021/07/09 05:30:16;;;;;;;7.15;3.28;;;;;;;21.71;69.53;102300.75;6364895;28;20512;-76
2021/07/09 05:33:22;;;;;;;3.85;3.28;;;;;;;21.72;69.62;102301.59;6366132;28;20186;-76
2021/07/09 05:36:26;;;;;;;5.00;3.03;;;;;;;21.79;70.02;102302.25;6365059;28;20197;-76
2021/07/09 05:39:30;;;;;;;5.03;3.17;;;;;;;21.90;69.53;102298.56;6364472;28;20287;-75
2021/07/09 05:42:35;;;;;;;3.30;3.00;;;;;;;21.89;70.70;102299.63;6365799;28;20189;-76
2021/07/09 05:45:39;;;;;;;8.07;3.25;;;;;;;21.82;70.45;102302.59;6364593;28;20372;-76
2021/07/09 05:48:48;;;;;;;3.38;3.17;;;;;;;21.92;70.08;102306.63;6364300;28;20379;-76
2021/07/09 05:51:52;;;;;;;5.53;3.42;;;;;;;21.81;69.74;102305.59;6365289;28;20249;-76
2021/07/09 05:54:56;;;;;;;3.45;3.25;;;;;;;21.84;69.50;102300.38;6365638;28;20190;-76
2021/07/09 05:58:00;;;;;;;3.00;2.90;;;;;;;21.94;70.14;102307.19;6363681;28;20468;-76
2021/07/09 06:01:04;;;;;;;3.20;3.10;;;;;;;21.97;69.59;102304.75;6364253;28;20182;-76
2021/07/09 06:04:11;;;;;;;3.47;3.22;;;;;;;22.10;69.39;102311.88;6363815;28;20406;-76
2021/07/09 06:07:15;;;;;;;5.07;3.08;;;;;;;22.23;69.12;102314.25;6363910;28;20189;-76
2021/07/09 06:10:19;;;;;;;5.68;3.10;;;;;;;22.34;69.47;102321.63;6363678;28;20309;-76
2021/07/09 06:13:24;;;;;;;6.40;3.38;;;;;;;22.41;68.79;102306.44;6364751;28;20189;-76
2021/07/09 06:16:28;;;;;;;4.95;3.40;;;;;;;22.41;68.05;102306.44;6364650;28;20275;-76
2021/07/09 06:19:34;;;;;;;5.55;3.08;;;;;;;22.57;67.97;102301.03;6363485;28;20452;-76
2021/07/09 06:22:38;;;;;;;4.40;3.10;;;;;;;22.68;67.66;102308.41;6363377;28;20182;-76
2021/07/09 06:25:42;;;;;;;12.52;3.25;;;;;;;22.67;67.18;102315.94;6364842;28;20217;-76
2021/07/09 06:28:46;;;;;;;6.70;3.25;;;;;;;22.84;66.78;102315.81;6363430;28;20198;-76
2021/07/09 06:31:50;;;;;;;3.22;2.92;;;;;;;22.89;67.43;102307.50;6364686;28;20260;-76
2021/07/09 06:34:56;;;;;;;3.72;2.90;;;;;;;23.01;67.44;102305.38;6363595;28;20417;-76
2021/07/09 06:38:01;;;;;;;4.95;3.53;;;;;;;22.99;66.68;102314.00;6362946;28;20222;-76
2021/07/09 06:41:05;;;;;;;6.25;3.58;;;;;;;23.21;66.00;102316.72;6363781;28;20182;-75
2021/07/09 06:44:10;;;;;;;2.92;2.80;;;;;;;23.23;65.66;102317.28;6363734;28;20246;-76
2021/07/09 06:47:15;;;;;;;25.20;3.65;;;;;;;23.41;65.47;102311.34;6363601;28;20227;-75
2021/07/09 06:50:21;;;;;;;13.07;3.13;;;;;;;23.51;64.87;102310.56;6363101;28;20497;-76
2021/07/09 06:53:25;;;;;;;3.28;2.70;;;;;;;23.54;62.97;102298.91;6363922;28;20182;-76
2021/07/09 06:56:30;;;;;;;2.88;2.60;;;;;;;23.59;62.94;102285.84;6363576;28;20280;-76
2021/07/09 06:59:34;;;;;;;9.68;2.72;;;;;;;23.66;63.45;102291.16;6363466;28;20186;-76
2021/07/09 07:02:38;;;;;;;2.67;2.47;;;;;;;23.64;62.75;102305.38;6362335;28;20271;-76
2021/07/09 07:05:43;;;;;;;5.13;2.85;;;;;;;23.63;62.81;102298.13;6362263;28;20536;-76
2021/07/09 07:08:47;;;;;;;4.68;2.67;;;;;;;23.58;61.64;102300.88;6362396;28;20182;-76
2021/07/09 07:11:52;;;;;;;4.55;2.97;;;;;;;23.62;61.75;102302.00;6343906;28;20229;-75
2021/07/09 07:14:56;;;;;;;6.95;2.83;;;;;;;23.73;61.30;102302.09;6363273;28;20221;-75
2021/07/09 07:18:02;;;;;;;7.28;2.70;;;;;;;23.82;61.09;102290.16;6363197;28;20269;-76
2021/07/09 07:21:08;;;;;;;2.45;2.35;;;;;;;23.89;60.82;102282.38;6362930;28;20185;-76
2021/07/09 07:24:12;;;;;;;5.57;2.50;;;;;;;23.91;61.54;102270.97;6361769;28;20210;-75
2021/07/09 07:27:17;;;;;;;2.90;2.80;;;;;;;24.01;62.52;102276.59;6362729;28;20182;-75
2021/07/09 07:30:21;;;;;;;4.38;2.85;;;;;;;24.12;60.84;102279.16;6362736;28;20257;-75
2021/07/09 07:33:25;;;;;;;3.05;2.45;;;;;;;24.15;59.60;102283.38;6361523;28;20182;-75
2021/07/09 07:36:49;;;;;;;2.42;2.30;;;;;;;24.19;57.72;102284.50;6363082;28;20211;-75
2021/07/09 07:39:54;;;;;;;2.70;2.50;;;;;;;24.22;58.91;102278.34;6362505;28;20274;-75
2021/07/09 07:43:01;;;;;;;2.92;2.70;;;;;;;24.30;59.90;102275.03;6361508;28;20409;-75
2021/07/09 07:46:06;;;;;;;4.75;2.80;;;;;;;24.31;59.53;102267.53;6362835;28;20238;-75
2021/07/09 07:49:11;;;;;;;2.55;2.40;;;;;;;24.36;57.86;102273.13;6362151;28;20182;-74
2021/07/09 07:52:18;;;;;;;8.65;2.70;;;;;;;24.34;57.83;102269.78;6362797;28;20261;-75
2021/07/09 07:55:23;;;;;;;8.10;2.75;;;;;;;24.40;56.08;102268.66;6362782;28;20190;-75
2021/07/09 07:58:27;;;;;;;3.67;2.80;;;;;;;24.52;55.06;102272.06;6362532;28;20189;-75
2021/07/09 08:01:32;;;;;;;4.07;2.70;;;;;;;24.48;56.38;102266.19;6362586;28;20220;-75
2021/07/09 08:04:37;;;;;;;14.57;3.10;;;;;;;24.52;56.48;102267.31;6361930;28;20210;-75
2021/07/09 08:07:43;;;;;;;4.10;2.30;;;;;;;24.51;55.52;102268.41;6362463;28;20236;-75
2021/07/09 08:10:48;;;;;;;2.50;2.40;;;;;;;24.54;55.73;102270.66;6361224;28;20405;-75
2021/07/09 08:13:52;;;;;;;2.47;2.20;;;;;;;24.55;55.49;102263.94;6362190;28;20284;-75
2021/07/09 08:16:56;;;;;;;13.95;2.50;;;;;;;24.56;55.58;102268.44;6361169;28;20439;-75
2021/07/09 08:20:00;;;;;;;5.90;2.58;;;;;;;24.49;55.53;102267.88;6363990;28;20182;-76
2021/07/09 08:23:07;;;;;;;6.32;2.78;;;;;;;24.58;55.76;102274.56;6366307;28;20376;-74
2021/07/09 08:26:14;;;;;;;3.17;2.50;;;;;;;24.59;55.76;102279.03;6367608;28;20273;-74
2021/07/09 08:29:18;;;;;;;2.95;2.38;;;;;;;24.55;55.26;102277.91;6366118;28;20469;-76
2021/07/09 08:32:30;;;;;;;4.00;2.35;;;;;;;24.56;53.88;102278.75;6367055;28;20300;-75
2021/07/09 08:35:34;;;;;;;5.80;2.70;;;;;;;24.67;54.27;102280.44;6366681;28;20208;-74
2021/07/09 08:38:39;;;;;;;3.65;2.25;;;;;;;24.66;54.88;102296.34;6367048;28;20189;-74
2021/07/09 08:41:44;;;;;;;7.00;2.70;;;;;;;24.70;54.83;102303.03;6365689;28;20218;-74
2021/07/09 08:44:48;;;;;;;9.73;2.50;;;;;;;24.75;56.06;102299.44;6365285;28;20466;-75
2021/07/09 08:47:55;;;;;;;5.28;2.50;;;;;;;24.66;55.74;102301.94;6347031;28;20271;-76
2021/07/09 08:51:01;;;;;;;2.28;2.17;;;;;;;24.54;54.96;102295.78;6390929;27;20270;-75
2021/07/09 08:54:10;;;;;;;5.07;2.00;;;;;;;24.50;56.03;102291.84;6391935;27;20244;-74
2021/07/09 08:57:15;;;;;;;4.35;2.40;;;;;;;24.57;55.11;102295.22;6372142;27;20201;-75
2021/07/09 09:00:39;;;;;;;5.10;2.40;;;;;;;24.46;54.23;102295.47;6390793;27;20407;-75
2021/07/09 09:03:43;;;;;;;14.20;2.80;;;;;;;24.63;54.41;102285.72;6392016;27;20188;-75
2021/07/09 09:06:56;;;;;;;2.88;2.05;;;;;;;24.67;55.16;102280.44;6392075;27;20205;-75
2021/07/09 09:10:02;;;;;;;3.28;1.98;;;;;;;24.76;55.01;102278.78;6392295;27;20254;-74
2021/07/09 09:13:18;;;;;;;2.03;1.92;;;;;;;24.74;54.41;102281.84;6373537;27;20240;-75
2021/07/09 09:16:24;;;;;;;6.25;2.30;;;;;;;24.82;53.24;102277.72;6391155;27;20248;-75
2021/07/09 09:19:32;;;;;;;4.50;2.20;;;;;;;24.83;52.62;102274.63;6390458;27;20499;-76
2021/07/09 09:22:39;;;;;;;8.02;2.00;;;;;;;24.85;52.72;102278.00;6391510;27;20245;-76
2021/07/09 09:25:44;;;;;;;3.28;2.30;;;;;;;24.83;51.55;102271.03;6391402;27;20246;-75
2021/07/09 09:28:48;;;;;;;2.63;2.28;;;;;;;24.83;51.75;102279.41;6376766;27;20273;-76
2021/07/09 09:31:55;;;;;;;2.33;1.80;;;;;;;24.89;50.76;102275.47;6366344;27;20265;-75
2021/07/09 09:34:59;;;;;;;2.47;1.60;;;;;;;24.87;50.33;102270.19;6365915;28;20183;-75
2021/07/09 09:38:07;;;;;;;2.30;2.10;;;;;;;24.99;51.97;102267.09;6365427;28;20186;-75
2021/07/09 09:41:19;;;;;;;5.70;1.90;;;;;;;24.95;48.78;102271.59;6364792;28;20466;-75
2021/07/09 09:44:32;;;;;;;6.63;2.10;;;;;;;25.05;48.43;102265.16;6365261;28;20496;-75
2021/07/09 09:47:38;;;;;;;4.55;1.70;;;;;;;25.11;49.00;102266.84;6365902;28;20209;-76
2021/07/09 09:50:47;;;;;;;1.60;1.60;;;;;;;25.08;48.50;102271.03;6366096;28;20186;-75
2021/07/09 09:53:53;;;;;;;6.20;1.95;;;;;;;25.23;48.10;102257.03;6364063;28;20182;-76
2021/07/09 09:57:17;;;;;;;7.13;2.10;;;;;;;25.28;46.63;102253.41;6365366;28;20186;-75
2021/07/09 10:00:29;;;;;;;2.13;1.80;;;;;;;25.26;46.67;102250.06;6364859;28;20190;-75
2021/07/09 10:03:52;;;;;;;7.20;2.00;;;;;;;25.32;46.55;102243.34;6364121;28;20183;-76
2021/07/09 10:06:58;;;;;;;1.75;1.65;;;;;;;25.29;46.01;102244.75;6364193;28;20396;-76
2021/07/09 10:10:04;;;;;;;3.30;1.80;;;;;;;25.27;45.35;102246.16;6364688;28;20189;-75
2021/07/09 10:13:14;;;;;;;3.97;2.05;;;;;;;25.29;44.66;102255.09;6364640;28;20186;-75
2021/07/09 10:16:19;;;;;;;2.90;1.80;;;;;;;25.27;43.93;102244.19;6364636;28;20222;-75
2021/07/09 10:19:28;;;;;;;2.92;1.77;;;;;;;25.32;43.77;102243.34;6363269;28;20465;-75
2021/07/09 10:22:33;;;;;;;5.00;1.73;;;;;;;25.30;43.71;102240.00;6364159;28;20290;-75
2021/07/09 10:25:39;;;;;;;3.22;1.63;;;;;;;25.34;43.96;102235.53;6363197;28;20492;-76
2021/07/09 10:32:35;;;;;;;2.80;1.60;;;;;;;25.18;42.27;102240.28;6384758;27;20717;-75
2021/07/09 10:35:41;;;;;;;3.17;1.58;;;;;;;25.28;43.37;102240.28;6359290;28;20259;-75
2021/07/09 10:38:45;;;;;;;1.50;1.40;;;;;;;25.24;42.25;102210.41;6357945;28;20534;-75
2021/07/09 10:41:50;;;;;;;3.75;1.60;;;;;;;25.27;42.61;102218.22;6357672;28;20434;-75
2021/07/09 10:45:05;;;;;;;1.73;1.73;;;;;;;25.30;41.60;102212.06;6358010;28;20186;-76
2021/07/09 10:48:16;;;;;;;1.30;1.30;;;;;;;25.22;41.21;102193.06;6359870;28;20188;-77
2021/07/09 10:51:20;;;;;;;2.40;1.50;;;;;;;25.28;42.58;102203.97;6361119;28;20210;-76
2021/07/09 10:54:27;;;;;;;1.40;1.40;;;;;;;25.35;41.42;102203.66;6358342;28;20474;-76
2021/07/09 10:57:32;;;;;;;2.58;1.42;;;;;;;25.33;42.29;102200.31;6357770;28;20191;-76
2021/07/09 11:00:43;;;;;;;1.60;1.60;;;;;;;25.26;42.18;102203.41;6359282;28;20187;-76
2021/07/09 11:03:49;;;;;;;2.20;1.73;;;;;;;25.38;42.97;102197.50;6357827;28;20222;-74
2021/07/09 11:07:21;;;;;;;1.60;1.60;;;;;;;25.35;41.67;102198.91;6358552;28;20190;-74
2021/07/09 11:10:57;;;;;;;1.63;1.50;;;;;;;25.29;41.49;102193.63;6358443;28;20214;-75
2021/07/09 11:14:08;;;;;;;2.00;1.90;;;;;;;25.40;42.40;102189.69;6358539;28;20246;-74
2021/07/09 11:17:18;;;;;;;1.77;1.52;;;;;;;25.43;42.81;102175.13;6357188;28;20408;-75
2021/07/09 11:20:32;;;;;;;1.70;1.60;;;;;;;25.39;41.44;102176.84;6358296;28;20232;-75
2021/07/09 11:23:52;;;;;;;1.70;1.70;;;;;;;25.27;42.85;102179.13;6357076;28;20183;-75
2021/07/09 11:27:03;;;;;;;1.58;1.58;;;;;;;25.22;42.11;102181.91;6338968;28;20222;-75
2021/07/09 11:30:14;;;;;;;2.55;1.40;;;;;;;25.02;41.83;102176.34;6357685;28;20300;-75
2021/07/09 11:33:23;;;;;;;1.40;1.30;;;;;;;25.03;43.29;102178.03;6357887;28;20186;-75
2021/07/09 11:36:30;;;;;;;1.40;1.40;;;;;;;25.15;43.04;102171.03;6357941;28;20262;-75
2021/07/09 11:39:36;;;;;;;5.80;1.45;;;;;;;25.10;41.98;102182.22;6357491;28;20250;-75
2021/07/09 11:42:41;;;;;;;1.65;1.45;;;;;;;25.17;43.58;102185.53;6346212;28;20254;-75
2021/07/09 11:45:45;;;;;;;1.45;1.45;;;;;;;25.21;42.55;102185.81;6340543;28;20256;-75
2021/07/09 11:48:49;;;;;;;2.22;1.55;;;;;;;25.14;42.89;102190.88;6339507;28;20474;-75
2021/07/09 11:51:56;;;;;;;1.60;1.50;;;;;;;25.22;43.26;102181.91;6340311;28;20248;-77
2021/07/09 11:55:04;;;;;;;4.40;1.30;;;;;;;25.12;42.58;102177.16;6340283;28;20270;-74
2021/07/09 11:58:11;;;;;;;1.50;1.50;;;;;;;25.22;43.09;102181.91;6340510;28;20190;-74
2021/07/09 12:01:17;;;;;;;1.42;1.33;;;;;;;25.28;43.79;102175.19;6339987;28;20218;-75
2021/07/09 12:04:29;;;;;;;1.70;1.60;;;;;;;25.30;43.59;102181.31;6339932;28;20183;-74
2021/07/09 12:07:35;;;;;;;2.22;1.60;;;;;;;25.34;43.96;102180.50;6340300;28;20205;-74
2021/07/09 12:10:42;;;;;;;1.58;1.50;;;;;;;25.29;45.10;102182.47;6338932;28;20218;-74
2021/07/09 12:14:02;;;;;;;3.45;1.38;;;;;;;25.29;42.83;102168.50;6339284;28;20187;-75
2021/07/09 12:17:14;;;;;;;1.60;1.50;;;;;;;25.21;42.07;102180.25;6339945;28;20205;-76
2021/07/09 12:20:21;;;;;;;1.70;1.60;;;;;;;25.29;43.89;102160.97;6339086;28;20236;-75
2021/07/09 12:23:33;;;;;;;1.58;1.50;;;;;;;25.40;43.13;102161.72;6339732;28;20190;-75
2021/07/09 12:26:37;;;;;;;2.08;1.55;;;;;;;25.49;44.80;102154.50;6340097;28;20275;-75
2021/07/09 12:29:41;;;;;;;1.98;1.50;;;;;;;25.67;43.92;102158.59;6339293;28;20273;-75
2021/07/09 12:32:48;;;;;;;1.83;1.75;;;;;;;25.51;42.78;102152.25;6338466;28;20502;-75
2021/07/09 12:35:54;;;;;;;1.80;1.67;;;;;;;25.68;43.50;102147.13;6338301;28;20465;-75
2021/07/09 12:39:01;;;;;;;1.73;1.50;;;;;;;25.56;43.08;102143.84;6339275;28;20246;-75
2021/07/09 12:42:11;;;;;;;1.70;1.60;;;;;;;25.45;42.51;102136.56;6339303;28;20186;-75
2021/07/09 12:45:17;;;;;;;4.68;1.60;;;;;;;25.45;43.42;102136.56;6337819;28;20209;-75
2021/07/09 12:48:33;;;;;;;2.17;1.73;;;;;;;25.30;43.48;102128.25;6337842;28;20442;-75
2021/07/09 12:51:38;;;;;;;1.40;1.40;;;;;;;25.38;43.74;102130.47;6339143;28;20215;-75
2021/07/09 12:54:44;;;;;;;3.53;1.77;;;;;;;25.36;43.57;102132.72;6337047;28;20260;-76
2021/07/09 12:57:48;;;;;;;1.70;1.60;;;;;;;25.25;45.26;102131.91;6339418;28;20250;-75
2021/07/09 13:00:55;;;;;;;1.48;1.38;;;;;;;25.20;44.82;102122.69;6339089;28;20187;-75
2021/07/09 13:03:59;;;;;;;1.70;1.60;;;;;;;25.05;44.33;102126.38;6337664;28;20384;-75
2021/07/09 13:07:10;;;;;;;1.60;1.60;;;;;;;25.06;45.65;102121.63;6338918;28;20183;-76
2021/07/09 13:10:18;;;;;;;1.67;1.58;;;;;;;25.12;45.87;102126.06;6337509;28;20206;-75
2021/07/09 13:13:23;;;;;;;2.65;1.95;;;;;;;25.09;45.44;102115.47;6337198;28;20214;-75
2021/07/09 13:16:27;;;;;;;1.90;1.80;;;;;;;25.12;46.39;102120.47;6338985;28;20194;-75
2021/07/09 13:19:34;;;;;;;1.83;1.70;;;;;;;25.01;45.56;102118.84;6319428;28;20610;-75
2021/07/09 13:22:40;;;;;;;1.88;1.73;;;;;;;24.93;45.84;102125.00;6337308;28;20404;-75
2021/07/09 13:26:00;;;;;;;3.70;1.70;;;;;;;24.79;47.11;102125.59;6337355;28;20250;-75
2021/07/09 13:29:06;;;;;;;1.70;1.60;;;;;;;24.83;45.73;102121.09;6338604;28;20183;-75
2021/07/09 13:32:14;;;;;;;1.90;1.80;;;;;;;24.81;46.65;102117.75;6337725;28;20234;-76
2021/07/09 13:35:19;;;;;;;1.70;1.60;;;;;;;24.73;46.20;102112.69;6338221;28;20194;-75
2021/07/09 13:38:23;;;;;;;3.78;1.90;;;;;;;24.67;45.89;102108.25;6338319;28;20262;-75
2021/07/09 13:41:29;;;;;;;1.92;1.83;;;;;;;24.69;46.09;102106.03;6338398;28;20190;-75
2021/07/09 13:44:33;;;;;;;1.90;1.80;;;;;;;24.52;45.80;102102.69;6336809;28;20353;-75
2021/07/09 13:47:38;;;;;;;3.08;1.80;;;;;;;24.59;47.00;102092.09;6338209;28;20246;-77
2021/07/09 13:50:42;;;;;;;1.70;1.60;;;;;;;24.46;45.62;102077.84;6338102;28;20183;-75
2021/07/09 13:53:47;;;;;;;1.90;1.80;;;;;;;24.45;46.02;102076.16;6337792;28;20217;-76
2021/07/09 13:56:53;;;;;;;1.58;1.58;;;;;;;24.37;46.99;102073.97;6336545;28;20481;-75
2021/07/09 13:59:58;;;;;;;3.38;2.08;;;;;;;24.37;46.58;102083.16;6338646;28;20214;-75
2021/07/09 14:03:02;;;;;;;1.85;1.85;;;;;;;24.39;47.28;102077.31;6337265;28;20379;-76
2021/07/09 14:06:06;;;;;;;1.83;1.73;;;;;;;24.36;47.16;102061.97;6337881;28;20182;-75
2021/07/09 14:09:11;;;;;;;1.83;1.70;;;;;;;24.37;47.93;102063.63;6337994;28;20190;-75
2021/07/09 14:12:16;;;;;;;2.65;1.80;;;;;;;24.36;48.22;102067.53;6336242;28;20210;-75
2021/07/09 14:15:21;;;;;;;1.95;1.95;;;;;;;24.41;48.11;102066.69;6336864;28;20501;-75
2021/07/09 14:18:26;;;;;;;1.67;1.58;;;;;;;24.49;47.52;102066.13;6337238;28;20186;-75
2021/07/09 14:21:30;;;;;;;1.80;1.70;;;;;;;24.58;47.97;102068.06;6337463;28;20253;-75
2021/07/09 14:24:35;;;;;;;1.67;1.60;;;;;;;24.47;47.49;102068.38;6337078;28;20228;-75
2021/07/09 14:27:40;;;;;;;2.00;1.90;;;;;;;24.49;47.72;102072.56;6336969;28;20226;-75
2021/07/09 14:30:44;;;;;;;1.70;1.70;;;;;;;24.33;48.18;102073.69;6337865;28;20539;-75